Time;durP1;ratioP1;P1;durP2;ratioP2;P2;SDS_P1;SDS_P2;PMS_P1;PMS_P2;Temp;Humidity;BMP_temperature;BMP_pressure;BME280_temperature;BME280_humidity;BME280_pressure;Samples;Min_cycle;Max_cycle;Signal;HPM_P1;HPM_P2
2023/11/19 00:00:11;;;;;;;;;;;21.10;37.10;;;;;;5113977;28;19924;-54
2023/11/19 00:02:39;;;;;;;;;;;21.00;37.10;;;;;;5113930;28;19924;-55
2023/11/19 00:05:08;;;;;;;;;;;21.00;37.00;;;;;;5113998;28;19924;-53
2023/11/19 00:07:36;;;;;;;;;;;21.00;37.10;;;;;;5113394;28;19924;-54
2023/11/19 00:10:06;;;;;;;;;;;21.00;37.00;;;;;;5113451;28;20355;-55
2023/11/19 00:12:34;;;;;;;;;;;21.00;37.10;;;;;;5113796;28;19930;-55
2023/11/19 00:15:01;;;;;;;;;;;21.00;37.10;;;;;;5113671;28;20383;-55
2023/11/19 00:17:28;;;;;;;;;;;21.00;37.10;;;;;;5095232;28;19930;-55
2023/11/19 00:19:55;;;;;;;;;;;21.00;37.10;;;;;;5095546;28;19931;-54
2023/11/19 00:22:22;;;;;;;;;;;21.00;37.10;;;;;;5113675;28;20353;-54
2023/11/19 00:24:49;;;;;;;;;;;21.00;37.10;;;;;;5095703;28;19931;-54
2023/11/19 00:27:17;;;;;;;;;;;21.00;37.20;;;;;;5113324;28;20379;-54
2023/11/19 00:29:44;;;;;;;;;;;21.00;37.20;;;;;;5113216;28;19967;-55
2023/11/19 00:32:15;;;;;;;;;;;21.00;37.20;;;;;;5113251;28;19943;-54
2023/11/19 00:34:45;;;;;;;;;;;21.00;37.20;;;;;;5113429;28;20398;-53
2023/11/19 00:37:12;;;;;;;;;;;21.00;37.20;;;;;;5116813;28;19934;-51
2023/11/19 00:39:39;;;;;;;;;;;21.00;37.20;;;;;;5117054;28;19974;-55
2023/11/19 00:42:06;;;;;;;;;;;21.00;37.20;;;;;;5117211;28;19970;-55
2023/11/19 00:44:33;;;;;;;;;;;21.00;37.30;;;;;;5117421;28;19924;-54
2023/11/19 00:47:00;;;;;;;;;;;21.00;37.30;;;;;;5117321;28;19923;-55
2023/11/19 00:49:27;;;;;;;;;;;21.00;37.30;;;;;;5098832;28;19923;-55
2023/11/19 00:51:54;;;;;;;;;;;21.00;37.30;;;;;;5116757;28;19928;-55
2023/11/19 00:54:24;;;;;;;;;;;21.00;37.30;;;;;;5099234;28;19928;-53
2023/11/19 00:56:52;;;;;;;;;;;21.00;37.30;;;;;;5116971;28;20360;-55
2023/11/19 00:59:19;;;;;;;;;;;21.00;37.30;;;;;;5117042;28;19977;-54
2023/11/19 01:01:48;;;;;;;;;;;21.00;37.30;;;;;;5116861;28;19924;-54
2023/11/19 01:04:15;;;;;;;;;;;21.00;37.30;;;;;;5116517;28;19969;-55
2023/11/19 01:06:42;;;;;;;;;;;21.00;37.30;;;;;;5116805;28;19924;-55
2023/11/19 01:09:12;;;;;;;;;;;21.00;37.30;;;;;;5116649;28;19983;-55
2023/11/19 01:11:39;;;;;;;;;;;21.00;37.30;;;;;;5116201;28;19990;-55
2023/11/19 01:14:06;;;;;;;;;;;21.00;37.30;;;;;;5116639;28;20376;-54
2023/11/19 01:16:33;;;;;;;;;;;21.00;37.30;;;;;;5116356;28;20334;-55
2023/11/19 01:19:04;;;;;;;;;;;21.00;37.30;;;;;;5116155;28;19924;-55
2023/11/19 01:21:43;;;;;;;;;;;21.00;37.30;;;;;;5116407;28;19963;-57
2023/11/19 01:24:13;;;;;;;;;;;21.00;37.30;;;;;;5115803;28;19931;-56
2023/11/19 01:26:45;;;;;;;;;;;21.00;37.90;;;;;;5116314;28;19928;-54
2023/11/19 01:29:13;;;;;;;;;;;21.00;37.30;;;;;;5116514;28;19966;-55
2023/11/19 01:31:41;;;;;;;;;;;21.00;37.30;;;;;;5116232;28;19959;-56
2023/11/19 01:34:08;;;;;;;;;;;21.00;37.40;;;;;;5116235;28;20333;-56
2023/11/19 01:36:35;;;;;;;;;;;21.00;37.30;;;;;;5116209;28;19923;-55
2023/11/19 01:39:04;;;;;;;;;;;21.00;37.40;;;;;;5116027;28;19928;-56
2023/11/19 01:41:35;;;;;;;;;;;20.90;37.30;;;;;;5116198;28;20333;-56
2023/11/19 01:44:03;;;;;;;;;;;21.00;37.30;;;;;;5115875;28;20026;-56
2023/11/19 01:46:32;;;;;;;;;;;21.00;37.30;;;;;;5115578;28;19924;-54
2023/11/19 01:49:00;;;;;;;;;;;20.90;37.30;;;;;;5115468;28;19930;-55
2023/11/19 01:51:28;;;;;;;;;;;20.90;37.30;;;;;;5116064;28;19924;-55
2023/11/19 01:53:55;;;;;;;;;;;20.90;37.30;;;;;;5115294;28;20014;-56
2023/11/19 01:56:23;;;;;;;;;;;20.90;37.30;;;;;;5115453;28;20429;-55
2023/11/19 01:58:50;;;;;;;;;;;20.90;37.30;;;;;;5097912;28;19932;-55
2023/11/19 02:01:17;;;;;;;;;;;20.90;37.30;;;;;;5115078;28;20342;-55
2023/11/19 02:03:44;;;;;;;;;;;20.90;37.30;;;;;;5115455;28;19927;-55
2023/11/19 02:06:11;;;;;;;;;;;20.90;37.50;;;;;;5115533;28;19930;-55
2023/11/19 02:08:38;;;;;;;;;;;20.90;37.30;;;;;;5115228;28;19967;-54
2023/11/19 02:11:07;;;;;;;;;;;20.90;37.30;;;;;;5115208;28;19969;-55
2023/11/19 02:13:36;;;;;;;;;;;20.90;37.30;;;;;;5115177;28;19992;-55
2023/11/19 02:16:04;;;;;;;;;;;20.90;37.30;;;;;;5115170;28;20031;-62
2023/11/19 02:18:31;;;;;;;;;;;20.90;37.30;;;;;;5115241;28;19924;-58
2023/11/19 02:20:59;;;;;;;;;;;20.90;37.30;;;;;;5115266;28;19927;-60
2023/11/19 02:23:28;;;;;;;;;;;20.90;37.30;;;;;;5114976;28;19931;-57
2023/11/19 02:26:01;;;;;;;;;;;20.90;37.30;;;;;;5115069;28;19924;-55
2023/11/19 02:28:29;;;;;;;;;;;20.90;37.30;;;;;;5115055;28;20005;-58
2023/11/19 02:30:56;;;;;;;;;;;20.90;37.30;;;;;;5114626;28;20387;-57
2023/11/19 02:33:24;;;;;;;;;;;20.90;37.40;;;;;;5115127;28;20006;-55
2023/11/19 02:35:51;;;;;;;;;;;20.90;37.40;;;;;;5115117;28;19978;-55
2023/11/19 02:38:18;;;;;;;;;;;20.90;37.40;;;;;;5114978;28;19931;-58
2023/11/19 02:40:45;;;;;;;;;;;20.90;37.40;;;;;;5114859;28;19969;-57
2023/11/19 02:43:13;;;;;;;;;;;20.90;37.40;;;;;;5114588;28;20026;-54
2023/11/19 02:45:40;;;;;;;;;;;20.90;37.40;;;;;;5114022;28;20368;-57
2023/11/19 02:48:07;;;;;;;;;;;20.90;37.40;;;;;;5114864;28;20364;-58
2023/11/19 02:50:34;;;;;;;;;;;20.90;38.00;;;;;;5114625;28;19928;-55
2023/11/19 02:53:01;;;;;;;;;;;20.90;37.40;;;;;;5096467;28;19950;-58
2023/11/19 02:55:34;;;;;;;;;;;20.90;37.40;;;;;;5114298;28;19977;-55
2023/11/19 02:58:05;;;;;;;;;;;20.90;37.40;;;;;;5114246;28;20436;-56
2023/11/19 03:00:35;;;;;;;;;;;20.90;37.40;;;;;;5113977;28;19950;-59
2023/11/19 03:03:17;;;;;;;;;;;20.90;37.30;;;;;;5114573;28;19930;-55
2023/11/19 03:05:46;;;;;;;;;;;20.90;37.30;;;;;;5114526;28;20002;-49
2023/11/19 03:08:14;;;;;;;;;;;20.90;37.40;;;;;;5114249;28;19950;-53
2023/11/19 03:10:49;;;;;;;;;;;20.90;37.40;;;;;;5114511;28;19923;-53
2023/11/19 03:13:19;;;;;;;;;;;20.90;37.40;;;;;;5114318;28;20338;-49
2023/11/19 03:15:46;;;;;;;;;;;20.90;37.30;;;;;;5114168;28;19924;-56
2023/11/19 03:18:13;;;;;;;;;;;20.90;37.30;;;;;;5113876;28;20395;-54
2023/11/19 03:20:40;;;;;;;;;;;20.90;37.40;;;;;;5114176;28;20018;-50
2023/11/19 03:23:07;;;;;;;;;;;20.90;37.40;;;;;;5114056;28;19923;-51
2023/11/19 03:25:36;;;;;;;;;;;20.90;37.40;;;;;;5114091;28;19931;-54
2023/11/19 03:28:03;;;;;;;;;;;20.90;37.40;;;;;;5114163;28;20291;-55
2023/11/19 03:30:31;;;;;;;;;;;20.90;37.40;;;;;;5113938;28;20018;-51
2023/11/19 03:33:01;;;;;;;;;;;20.90;37.40;;;;;;5114108;28;20252;-52
2023/11/19 03:35:30;;;;;;;;;;;20.90;37.40;;;;;;5114029;28;19964;-53
2023/11/19 03:37:57;;;;;;;;;;;20.90;37.40;;;;;;5113524;28;20368;-53
2023/11/19 03:40:25;;;;;;;;;;;20.90;37.40;;;;;;5114221;28;19923;-50
2023/11/19 03:42:52;;;;;;;;;;;20.90;37.40;;;;;;5113543;28;19946;-55
2023/11/19 03:45:19;;;;;;;;;;;20.90;37.50;;;;;;5095703;28;20019;-55
2023/11/19 03:47:46;;;;;;;;;;;20.80;37.40;;;;;;5113759;28;19924;-54
2023/11/19 03:50:15;;;;;;;;;;;20.80;37.40;;;;;;5113674;28;19928;-50
2023/11/19 03:52:43;;;;;;;;;;;20.80;37.40;;;;;;5114026;28;19932;-53
2023/11/19 03:55:12;;;;;;;;;;;20.80;37.40;;;;;;5095842;28;19924;-55
2023/11/19 03:57:39;;;;;;;;;;;20.80;37.40;;;;;;5113595;28;19931;-54
2023/11/19 04:00:10;;;;;;;;;;;20.80;37.40;;;;;;5095972;28;20314;-52
2023/11/19 04:02:37;;;;;;;;;;;20.80;37.40;;;;;;5113925;28;19985;-54
2023/11/19 04:05:05;;;;;;;;;;;20.80;37.40;;;;;;5113899;28;19970;-53
2023/11/19 04:07:32;;;;;;;;;;;20.80;37.50;;;;;;5113894;28;20430;-51
2023/11/19 04:10:00;;;;;;;;;;;20.80;37.40;;;;;;5113851;28;19989;-51
2023/11/19 04:12:27;;;;;;;;;;;20.80;37.40;;;;;;5117785;28;19923;-52
2023/11/19 04:14:54;;;;;;;;;;;20.90;37.50;;;;;;5117792;28;19928;-55
2023/11/19 04:17:24;;;;;;;;;;;20.80;37.40;;;;;;5117340;28;20015;-52
2023/11/19 04:19:51;;;;;;;;;;;20.80;37.40;;;;;;5117333;28;20570;-51
2023/11/19 04:22:18;;;;;;;;;;;20.80;37.40;;;;;;5117441;28;19923;-53
2023/11/19 04:24:45;;;;;;;;;;;20.80;37.40;;;;;;5117363;28;19937;-53
2023/11/19 04:27:13;;;;;;;;;;;20.80;37.40;;;;;;5117656;28;20311;-51
2023/11/19 04:29:40;;;;;;;;;;;20.80;37.40;;;;;;5117777;28;19947;-52
2023/11/19 04:32:08;;;;;;;;;;;20.80;37.50;;;;;;5099284;28;19924;-54
2023/11/19 04:34:35;;;;;;;;;;;20.80;37.50;;;;;;5117458;28;19924;-51
2023/11/19 04:37:03;;;;;;;;;;;20.80;37.70;;;;;;5117329;28;20276;-55
2023/11/19 04:39:33;;;;;;;;;;;20.80;37.30;;;;;;5116991;28;20018;-52
2023/11/19 04:42:00;;;;;;;;;;;20.80;37.10;;;;;;5099194;28;19924;-55
2023/11/19 04:44:26;;;;;;;;;;;20.90;37.00;;;;;;5116821;28;19924;-54
2023/11/19 04:46:53;;;;;;;;;;;20.90;36.80;;;;;;5116953;28;19927;-52
2023/11/19 04:49:21;;;;;;;;;;;20.90;36.70;;;;;;5116975;28;19924;-56
2023/11/19 04:51:48;;;;;;;;;;;20.90;36.50;;;;;;5117082;28;19923;-51
2023/11/19 04:54:15;;;;;;;;;;;21.00;36.40;;;;;;5117055;28;19970;-51
2023/11/19 04:56:45;;;;;;;;;;;21.00;36.30;;;;;;5116511;28;19972;-52
2023/11/19 04:59:12;;;;;;;;;;;21.00;36.40;;;;;;5116741;28;20452;-54
2023/11/19 05:01:39;;;;;;;;;;;21.00;36.40;;;;;;5116677;28;19924;-50
2023/11/19 05:04:07;;;;;;;;;;;21.00;36.40;;;;;;5116830;28;19955;-54
2023/11/19 05:06:35;;;;;;;;;;;20.90;36.40;;;;;;5116931;28;19946;-51
2023/11/19 05:09:04;;;;;;;;;;;20.90;36.40;;;;;;5116551;28;20352;-52
2023/11/19 05:11:34;;;;;;;;;;;20.90;36.30;;;;;;5116326;28;19927;-52
2023/11/19 05:14:03;;;;;;;;;;;20.90;36.20;;;;;;5116541;28;19930;-50
2023/11/19 05:16:31;;;;;;;;;;;20.90;36.20;;;;;;5116336;28;19947;-52
2023/11/19 05:18:58;;;;;;;;;;;20.90;36.20;;;;;;5116621;28;19930;-54
2023/11/19 05:21:26;;;;;;;;;;;20.90;36.10;;;;;;5115789;28;19931;-53
2023/11/19 05:23:54;;;;;;;;;;;20.90;36.10;;;;;;5115552;28;19935;-56
2023/11/19 05:26:22;;;;;;;;;;;20.90;36.10;;;;;;5116544;28;19924;-54
2023/11/19 05:28:49;;;;;;;;;;;20.90;36.10;;;;;;5116185;28;19924;-50
2023/11/19 05:31:17;;;;;;;;;;;20.90;36.00;;;;;;5116353;28;19992;-51
2023/11/19 05:33:44;;;;;;;;;;;21.00;36.00;;;;;;5116183;28;20372;-54
2023/11/19 05:36:15;;;;;;;;;;;21.00;35.90;;;;;;5116057;28;20375;-53
2023/11/19 05:38:42;;;;;;;;;;;21.00;35.90;;;;;;5116312;28;19924;-53
2023/11/19 05:41:09;;;;;;;;;;;21.00;35.90;;;;;;5116352;28;20325;-51
2023/11/19 05:43:37;;;;;;;;;;;21.00;35.90;;;;;;5098016;28;19969;-55
2023/11/19 05:46:04;;;;;;;;;;;21.00;35.80;;;;;;5116116;28;19931;-54
2023/11/19 05:48:46;;;;;;;;;;;21.00;35.80;;;;;;5117683;27;19924;-52
2023/11/19 05:51:15;;;;;;;;;;;21.00;35.80;;;;;;5136140;27;19933;-55
2023/11/19 05:53:42;;;;;;;;;;;21.00;35.90;;;;;;5136252;27;20361;-56
2023/11/19 05:56:09;;;;;;;;;;;21.00;35.90;;;;;;5136410;27;19947;-55
2023/11/19 05:58:37;;;;;;;;;;;21.00;35.90;;;;;;5136106;27;19930;-56
2023/11/19 06:01:04;;;;;;;;;;;21.00;35.80;;;;;;5136372;27;20390;-51
2023/11/19 06:03:32;;;;;;;;;;;21.10;35.90;;;;;;5135580;27;19923;-56
2023/11/19 06:05:59;;;;;;;;;;;21.00;35.70;;;;;;5135845;27;19961;-55
2023/11/19 06:08:26;;;;;;;;;;;21.00;35.60;;;;;;5136248;27;19927;-53
2023/11/19 06:10:54;;;;;;;;;;;21.10;35.70;;;;;;5136146;27;20323;-55
2023/11/19 06:13:21;;;;;;;;;;;21.10;35.50;;;;;;5136003;27;19992;-57
2023/11/19 06:15:51;;;;;;;;;;;21.10;35.50;;;;;;5135864;27;19928;-53
2023/11/19 06:18:19;;;;;;;;;;;21.10;35.40;;;;;;5136059;27;19923;-54
2023/11/19 06:20:47;;;;;;;;;;;21.10;35.30;;;;;;5135665;27;19935;-54
2023/11/19 06:23:14;;;;;;;;;;;21.10;35.30;;;;;;5135670;27;19990;-53
2023/11/19 06:25:41;;;;;;;;;;;21.10;35.20;;;;;;5135934;27;19923;-54
2023/11/19 06:28:09;;;;;;;;;;;21.20;35.20;;;;;;5135502;27;20367;-55
2023/11/19 06:30:36;;;;;;;;;;;21.20;35.20;;;;;;5135798;27;19934;-54
2023/11/19 06:33:03;;;;;;;;;;;21.20;35.20;;;;;;5134921;27;20372;-55
2023/11/19 06:35:35;;;;;;;;;;;21.20;35.10;;;;;;5135446;27;19924;-52
2023/11/19 06:38:06;;;;;;;;;;;21.20;35.10;;;;;;5135620;27;20366;-54
2023/11/19 06:40:34;;;;;;;;;;;21.20;35.00;;;;;;5135678;27;19923;-56
2023/11/19 06:43:03;;;;;;;;;;;21.20;35.00;;;;;;5135233;27;19923;-54
2023/11/19 06:45:30;;;;;;;;;;;21.20;34.90;;;;;;5135477;27;19923;-56
2023/11/19 06:48:00;;;;;;;;;;;21.20;34.90;;;;;;5134899;27;19927;-56
2023/11/19 06:50:27;;;;;;;;;;;21.30;34.90;;;;;;5135016;27;19923;-56
2023/11/19 06:52:54;;;;;;;;;;;21.30;34.90;;;;;;5135255;27;19928;-53
2023/11/19 06:55:21;;;;;;;;;;;21.30;34.80;;;;;;5134900;27;19928;-56
2023/11/19 06:57:48;;;;;;;;;;;21.30;34.80;;;;;;5135242;27;19930;-53
2023/11/19 07:00:18;;;;;;;;;;;21.30;34.80;;;;;;5135028;27;19966;-54
2023/11/19 07:02:45;;;;;;;;;;;21.30;34.60;;;;;;5134897;27;19976;-55
2023/11/19 07:05:13;;;;;;;;;;;21.40;34.70;;;;;;5135260;27;19959;-56
2023/11/19 07:07:40;;;;;;;;;;;21.40;34.60;;;;;;5135147;27;19931;-56
2023/11/19 07:10:09;;;;;;;;;;;21.40;34.60;;;;;;5134711;27;20446;-52
2023/11/19 07:12:36;;;;;;;;;;;21.40;34.50;;;;;;5134865;27;19923;-55
2023/11/19 07:15:05;;;;;;;;;;;21.40;34.50;;;;;;5134568;27;19923;-56
2023/11/19 07:17:32;;;;;;;;;;;21.40;34.40;;;;;;5134985;27;19930;-55
2023/11/19 07:19:59;;;;;;;;;;;21.50;34.40;;;;;;5135002;27;20359;-55
2023/11/19 07:22:29;;;;;;;;;;;21.50;34.50;;;;;;5134628;27;19923;-55
2023/11/19 07:24:56;;;;;;;;;;;21.50;34.40;;;;;;5134543;27;20387;-55
2023/11/19 07:27:24;;;;;;;;;;;21.50;34.40;;;;;;5134916;27;19924;-56
2023/11/19 07:29:51;;;;;;;;;;;21.50;34.40;;;;;;5134897;27;19985;-60
2023/11/19 07:32:18;;;;;;;;;;;21.50;34.50;;;;;;5134247;27;20375;-55
2023/11/19 07:34:46;;;;;;;;;;;21.50;34.40;;;;;;5134304;27;19923;-55
2023/11/19 07:37:13;;;;;;;;;;;21.50;34.40;;;;;;5134701;27;19927;-54
2023/11/19 07:39:40;;;;;;;;;;;21.50;34.40;;;;;;5125921;27;19931;-55
2023/11/19 07:42:09;;;;;;;;;;;21.60;34.40;;;;;;5129453;28;19981;-56
2023/11/19 07:44:36;;;;;;;;;;;21.60;34.30;;;;;;5114394;28;19936;-56
2023/11/19 07:47:04;;;;;;;;;;;21.60;34.30;;;;;;5105140;28;20453;-55
2023/11/19 07:49:31;;;;;;;;;;;21.60;34.20;;;;;;5100654;28;19924;-56
2023/11/19 07:51:58;;;;;;;;;;;21.60;34.20;;;;;;5109961;28;19977;-56
2023/11/19 07:54:25;;;;;;;;;;;21.60;34.20;;;;;;5113424;28;19997;-57
2023/11/19 07:56:52;;;;;;;;;;;21.60;34.10;;;;;;5120017;28;19932;-58
2023/11/19 07:59:19;;;;;;;;;;;21.60;34.00;;;;;;5119555;28;19930;-56
2023/11/19 08:01:46;;;;;;;;;;;21.60;34.00;;;;;;5120042;28;19928;-58
2023/11/19 08:04:13;;;;;;;;;;;21.70;34.00;;;;;;5119752;28;19934;-59
2023/11/19 08:06:41;;;;;;;;;;;21.70;34.00;;;;;;5120536;28;20022;-56
2023/11/19 08:09:13;;;;;;;;;;;21.70;34.00;;;;;;5120491;28;20283;-59
2023/11/19 08:11:41;;;;;;;;;;;21.70;33.90;;;;;;5119870;27;20302;-62
2023/11/19 08:14:08;;;;;;;;;;;21.70;33.90;;;;;;5120121;28;19977;-61
2023/11/19 08:16:37;;;;;;;;;;;21.70;33.80;;;;;;5101392;28;20384;-67
2023/11/19 08:19:04;;;;;;;;;;;21.70;33.80;;;;;;5114176;28;19993;-58
2023/11/19 08:21:31;;;;;;;;;;;21.70;33.80;;;;;;5120503;28;19930;-54
2023/11/19 08:23:58;;;;;;;;;;;21.70;33.70;;;;;;5120423;28;20014;-52
2023/11/19 08:26:25;;;;;;;;;;;21.80;33.70;;;;;;5120321;28;19974;-55
2023/11/19 08:28:52;;;;;;;;;;;21.80;34.20;;;;;;5120224;28;19928;-53
2023/11/19 08:31:19;;;;;;;;;;;21.80;33.60;;;;;;5119167;28;20372;-54
2023/11/19 08:33:47;;;;;;;;;;;21.80;33.60;;;;;;5119654;28;20469;-55
2023/11/19 08:36:17;;;;;;;;;;;21.80;33.60;;;;;;5119649;28;19928;-53
2023/11/19 08:38:44;;;;;;;;;;;21.80;33.50;;;;;;5120394;28;19931;-51
2023/11/19 08:41:11;;;;;;;;;;;21.90;33.60;;;;;;5119386;28;19977;-53
2023/11/19 08:43:39;;;;;;;;;;;21.80;33.50;;;;;;5119650;28;20012;-54
2023/11/19 08:46:09;;;;;;;;;;;21.90;33.50;;;;;;5119738;28;19967;-55
2023/11/19 08:48:36;;;;;;;;;;;21.90;33.30;;;;;;5119324;28;19950;-51
2023/11/19 08:51:04;;;;;;;;;;;22.00;33.40;;;;;;5119654;28;20449;-56
2023/11/19 08:53:31;;;;;;;;;;;22.00;33.30;;;;;;5120472;28;19993;-55
2023/11/19 08:55:58;;;;;;;;;;;22.00;33.20;;;;;;5119765;28;20008;-54
2023/11/19 08:58:25;;;;;;;;;;;22.00;33.10;;;;;;5111344;28;19928;-54
2023/11/19 09:00:52;;;;;;;;;;;22.10;33.10;;;;;;5109077;28;19924;-56
2023/11/19 09:03:20;;;;;;;;;;;22.10;33.10;;;;;;5111685;28;19970;-53
2023/11/19 09:05:47;;;;;;;;;;;22.10;33.10;;;;;;5116322;28;19924;-50
2023/11/19 09:08:14;;;;;;;;;;;22.10;33.10;;;;;;5096961;28;19924;-51
2023/11/19 09:10:41;;;;;;;;;;;22.20;33.10;;;;;;5092191;28;19924;-51
2023/11/19 09:13:08;;;;;;;;;;;22.20;33.00;;;;;;5116073;28;20318;-54
2023/11/19 09:15:35;;;;;;;;;;;22.20;33.00;;;;;;5116406;28;20008;-53
2023/11/19 09:18:02;;;;;;;;;;;22.20;32.90;;;;;;5116484;28;20302;-55
2023/11/19 09:20:37;;;;;;;;;;;22.30;33.00;;;;;;5098330;28;19931;-51
2023/11/19 09:23:06;;;;;;;;;;;22.20;32.90;;;;;;5137147;27;19923;-51
2023/11/19 09:25:33;;;;;;;;;;;22.30;32.90;;;;;;5109939;28;19955;-55
2023/11/19 09:28:03;;;;;;;;;;;22.30;32.80;;;;;;5116080;28;20010;-54
2023/11/19 09:30:30;;;;;;;;;;;22.30;32.80;;;;;;5116647;28;19930;-51
2023/11/19 09:32:57;;;;;;;;;;;22.30;32.70;;;;;;5115650;28;19924;-53
2023/11/19 09:35:24;;;;;;;;;;;22.40;32.70;;;;;;5129651;27;20352;-50
2023/11/19 09:37:51;;;;;;;;;;;22.30;32.50;;;;;;5122008;27;19924;-53
2023/11/19 09:40:18;;;;;;;;;;;22.30;32.50;;;;;;5115556;28;20037;-53
2023/11/19 09:42:45;;;;;;;;;;;22.40;32.50;;;;;;5115571;28;19934;-55
2023/11/19 09:45:15;;;;;;;;;;;22.40;32.50;;;;;;5115846;28;20355;-54
2023/11/19 09:47:45;;;;;;;;;;;22.40;32.30;;;;;;5115740;28;20387;-50
2023/11/19 09:50:16;;;;;;;;;;;22.50;32.30;;;;;;5098013;28;19930;-54
2023/11/19 09:52:43;;;;;;;;;;;22.50;32.30;;;;;;5115704;28;20006;-53
2023/11/19 09:55:10;;;;;;;;;;;22.60;32.30;;;;;;5116004;28;20011;-52
2023/11/19 09:57:38;;;;;;;;;;;22.60;32.20;;;;;;5113966;28;19924;-52
2023/11/19 10:00:05;;;;;;;;;;;22.60;32.10;;;;;;5115429;28;19932;-52
2023/11/19 10:02:33;;;;;;;;;;;22.60;31.90;;;;;;5097405;28;19923;-54
2023/11/19 10:05:03;;;;;;;;;;;22.60;31.90;;;;;;5115691;28;20054;-50
2023/11/19 10:07:32;;;;;;;;;;;22.70;31.90;;;;;;5097654;28;19924;-53
2023/11/19 10:10:00;;;;;;;;;;;22.70;31.90;;;;;;5094483;28;20419;-53
2023/11/19 10:12:27;;;;;;;;;;;22.70;31.80;;;;;;5094904;28;19977;-55
2023/11/19 10:14:56;;;;;;;;;;;22.80;31.70;;;;;;5107294;28;20329;-51
2023/11/19 10:17:32;;;;;;;;;;;22.80;31.70;;;;;;5114033;28;19928;-55
2023/11/19 10:20:00;;;;;;;;;;;22.80;31.70;;;;;;5115026;28;19924;-51
2023/11/19 10:22:28;;;;;;;;;;;22.80;31.70;;;;;;5115697;28;19924;-53
2023/11/19 10:24:55;;;;;;;;;;;22.80;31.50;;;;;;5113175;28;19924;-53
2023/11/19 10:27:26;;;;;;;;;;;22.80;31.60;;;;;;5115197;28;20260;-53
2023/11/19 10:29:53;;;;;;;;;;;22.80;31.60;;;;;;5127616;27;19923;-50
2023/11/19 10:32:20;;;;;;;;;;;22.80;31.60;;;;;;5135237;27;19924;-55
2023/11/19 10:35:04;;;;;;;;;;;22.80;31.40;;;;;;5133025;27;19931;-52
2023/11/19 10:37:32;;;;;;;;;;;22.80;31.50;;;;;;5108274;28;19928;-53
2023/11/19 10:40:00;;;;;;;;;;;22.80;31.60;;;;;;5114177;28;19982;-52
2023/11/19 10:42:27;;;;;;;;;;;22.80;31.50;;;;;;5113461;28;20360;-56
2023/11/19 10:44:54;;;;;;;;;;;22.80;31.50;;;;;;5113224;28;20371;-55
2023/11/19 10:47:22;;;;;;;;;;;22.80;31.40;;;;;;5105140;28;19924;-53
2023/11/19 10:49:52;;;;;;;;;;;22.90;31.50;;;;;;5114958;28;20027;-55
2023/11/19 10:52:20;;;;;;;;;;;22.90;31.50;;;;;;5114728;28;20036;-54
2023/11/19 10:54:53;;;;;;;;;;;22.90;31.40;;;;;;5114702;28;19924;-53
2023/11/19 10:57:21;;;;;;;;;;;22.90;31.30;;;;;;5115022;28;19924;-56
2023/11/19 10:59:51;;;;;;;;;;;22.90;31.40;;;;;;5114755;28;19945;-51
2023/11/19 11:02:21;;;;;;;;;;;22.90;31.30;;;;;;5111031;28;19923;-53
2023/11/19 11:04:49;;;;;;;;;;;22.90;31.20;;;;;;5114885;28;19927;-51
2023/11/19 11:07:18;;;;;;;;;;;23.00;31.30;;;;;;5107953;28;20414;-53
2023/11/19 11:09:48;;;;;;;;;;;23.00;31.20;;;;;;5114607;28;19971;-56
2023/11/19 11:12:17;;;;;;;;;;;23.00;31.10;;;;;;5114024;28;19969;-53
2023/11/19 11:14:45;;;;;;;;;;;23.00;31.10;;;;;;5096589;28;19994;-55
2023/11/19 11:17:14;;;;;;;;;;;23.00;31.00;;;;;;5114484;28;19928;-51
2023/11/19 11:19:42;;;;;;;;;;;23.00;31.10;;;;;;5113804;28;19924;-55
2023/11/19 11:22:10;;;;;;;;;;;23.00;31.10;;;;;;5113826;28;19971;-55
2023/11/19 11:24:53;;;;;;;;;;;23.00;31.10;;;;;;5114407;28;20442;-55
2023/11/19 11:27:40;;;;;;;;;;;23.00;31.10;;;;;;5113890;28;19928;-55
2023/11/19 11:30:27;;;;;;;;;;;23.00;31.10;;;;;;5114139;28;20427;-56
2023/11/19 11:33:06;;;;;;;;;;;22.90;31.10;;;;;;5113752;28;19924;-54
2023/11/19 11:35:51;;;;;;;;;;;22.90;31.10;;;;;;5114009;28;19931;-52
2023/11/19 11:38:21;;;;;;;;;;;22.90;31.20;;;;;;5113872;28;19927;-51
2023/11/19 11:41:08;;;;;;;;;;;22.90;31.20;;;;;;5109873;28;19928;-54
2023/11/19 11:44:00;;;;;;;;;;;22.90;31.30;;;;;;5093811;28;20276;-55
2023/11/19 11:46:47;;;;;;;;;;;22.90;31.00;;;;;;5092209;28;19999;-51
2023/11/19 11:49:14;;;;;;;;;;;22.90;31.00;;;;;;5078830;28;19967;-55
2023/11/19 11:52:01;;;;;;;;;;;22.90;30.90;;;;;;5104921;28;20026;-53
2023/11/19 11:54:30;;;;;;;;;;;22.90;31.10;;;;;;5099151;28;19924;-54
2023/11/19 11:57:02;;;;;;;;;;;22.90;31.10;;;;;;5114014;28;19924;-55
2023/11/19 11:59:46;;;;;;;;;;;22.90;31.00;;;;;;5114141;28;19930;-52
2023/11/19 12:02:16;;;;;;;;;;;23.00;31.10;;;;;;5113881;28;19930;-53
2023/11/19 12:04:46;;;;;;;;;;;22.90;30.90;;;;;;5114116;28;19923;-55
2023/11/19 12:07:21;;;;;;;;;;;23.00;31.00;;;;;;5113922;28;20014;-54
2023/11/19 12:09:53;;;;;;;;;;;22.90;31.00;;;;;;5113546;28;20360;-55
2023/11/19 12:12:26;;;;;;;;;;;22.90;31.10;;;;;;5113286;28;20380;-54
2023/11/19 12:15:01;;;;;;;;;;;22.90;31.30;;;;;;5095533;28;19977;-57
2023/11/19 12:17:44;;;;;;;;;;;22.90;31.30;;;;;;5106585;28;19977;-55
2023/11/19 12:20:11;;;;;;;;;;;22.80;31.30;;;;;;5113776;28;20019;-54
2023/11/19 12:22:39;;;;;;;;;;;22.80;31.30;;;;;;5113520;28;19924;-55
2023/11/19 12:25:09;;;;;;;;;;;22.80;31.30;;;;;;5113628;28;19927;-55
2023/11/19 12:27:36;;;;;;;;;;;22.80;31.30;;;;;;5114002;28;19928;-50
2023/11/19 12:30:07;;;;;;;;;;;22.80;31.40;;;;;;5113419;28;19924;-54
2023/11/19 12:32:37;;;;;;;;;;;22.80;31.30;;;;;;5116025;28;19928;-55
2023/11/19 12:35:04;;;;;;;;;;;22.90;31.40;;;;;;5117064;28;19924;-53
2023/11/19 12:37:31;;;;;;;;;;;22.80;31.30;;;;;;5116581;28;19924;-55
2023/11/19 12:39:58;;;;;;;;;;;22.80;31.20;;;;;;5117089;28;19924;-54
2023/11/19 12:42:36;;;;;;;;;;;22.80;31.20;;;;;;5117039;28;19924;-52
2023/11/19 12:45:04;;;;;;;;;;;22.80;31.30;;;;;;5117422;28;19946;-54
2023/11/19 12:47:31;;;;;;;;;;;22.80;31.20;;;;;;5099156;28;19924;-52
2023/11/19 12:49:58;;;;;;;;;;;22.80;31.20;;;;;;5116945;28;19930;-55
2023/11/19 12:52:25;;;;;;;;;;;22.80;31.20;;;;;;5117110;28;19963;-56
2023/11/19 12:54:52;;;;;;;;;;;22.80;31.20;;;;;;5117207;27;20364;-55
2023/11/19 12:57:19;;;;;;;;;;;22.90;31.20;;;;;;5098822;28;19924;-56
2023/11/19 12:59:56;;;;;;;;;;;22.80;31.30;;;;;;5116527;28;19954;-51
2023/11/19 13:02:43;;;;;;;;;;;22.80;31.10;;;;;;5116834;28;19932;-56
2023/11/19 13:05:26;;;;;;;;;;;22.90;31.30;;;;;;5116147;28;19924;-52
2023/11/19 13:08:06;;;;;;;;;;;22.80;31.20;;;;;;5116704;28;19923;-55
2023/11/19 13:10:34;;;;;;;;;;;22.80;31.30;;;;;;5116645;28;19930;-54
2023/11/19 13:13:02;;;;;;;;;;;22.80;31.20;;;;;;5116852;28;19923;-55
2023/11/19 13:15:29;;;;;;;;;;;22.80;31.30;;;;;;5116687;28;19951;-53
2023/11/19 13:17:56;;;;;;;;;;;22.80;31.30;;;;;;5116232;28;19924;-52
2023/11/19 13:20:23;;;;;;;;;;;22.80;31.30;;;;;;5116528;28;19930;-53
2023/11/19 13:22:54;;;;;;;;;;;22.80;31.30;;;;;;5116404;28;19924;-54
2023/11/19 13:25:21;;;;;;;;;;;22.80;31.30;;;;;;5116305;28;19932;-56
2023/11/19 13:27:48;;;;;;;;;;;22.80;31.30;;;;;;5116155;28;19923;-55
2023/11/19 13:30:16;;;;;;;;;;;22.80;31.20;;;;;;5116576;28;19924;-56
2023/11/19 13:32:46;;;;;;;;;;;22.90;31.80;;;;;;5115932;28;20014;-55
2023/11/19 13:35:13;;;;;;;;;;;22.90;31.10;;;;;;5116146;28;20019;-55
2023/11/19 13:37:40;;;;;;;;;;;22.90;31.10;;;;;;5116106;28;20372;-55
2023/11/19 13:40:09;;;;;;;;;;;22.90;31.20;;;;;;5116268;28;19957;-58
2023/11/19 13:42:40;;;;;;;;;;;22.90;31.20;;;;;;5097684;28;19928;-55
2023/11/19 13:45:11;;;;;;;;;;;22.90;31.10;;;;;;5115104;28;19924;-56
2023/11/19 13:47:41;;;;;;;;;;;22.90;31.20;;;;;;5116209;28;19924;-55
2023/11/19 13:50:09;;;;;;;;;;;22.90;31.30;;;;;;5115995;28;19928;-55
2023/11/19 13:52:38;;;;;;;;;;;22.90;31.30;;;;;;5097773;28;19931;-56
2023/11/19 13:55:06;;;;;;;;;;;22.80;31.40;;;;;;5098166;28;20330;-55
2023/11/19 13:57:37;;;;;;;;;;;22.80;31.40;;;;;;5116151;28;19952;-54
2023/11/19 14:00:12;;;;;;;;;;;22.80;31.40;;;;;;5115918;28;19923;-56
2023/11/19 14:02:40;;;;;;;;;;;22.80;31.40;;;;;;5097668;28;19923;-52
2023/11/19 14:05:08;;;;;;;;;;;22.80;31.50;;;;;;5115849;28;19972;-54
2023/11/19 14:07:35;;;;;;;;;;;22.80;31.50;;;;;;5114787;28;20292;-55
2023/11/19 14:10:02;;;;;;;;;;;22.80;31.60;;;;;;5113981;28;19924;-55
2023/11/19 14:12:30;;;;;;;;;;;22.70;31.70;;;;;;5114660;28;19946;-55
2023/11/19 14:14:57;;;;;;;;;;;22.70;31.80;;;;;;5114437;28;19935;-55
2023/11/19 14:17:24;;;;;;;;;;;22.70;31.90;;;;;;5115638;28;19924;-53
2023/11/19 14:19:52;;;;;;;;;;;22.70;31.90;;;;;;5114761;28;20439;-54
2023/11/19 14:22:19;;;;;;;;;;;22.70;32.00;;;;;;5114868;28;20319;-54
2023/11/19 14:24:46;;;;;;;;;;;22.70;32.10;;;;;;5114900;28;19970;-55